createdAt,value
2023-02-02T00:01:29.423Z,2.23
2023-02-02T00:03:57.219Z,2.17
2023-02-02T00:06:27.033Z,2.07
2023-02-02T00:08:55.609Z,2.30
2023-02-02T00:11:22.242Z,2.30
2023-02-02T00:13:48.911Z,2.37
2023-02-02T00:16:36.080Z,2.07
2023-02-02T00:19:06.795Z,2.33
2023-02-02T00:21:33.485Z,2.20
2023-02-02T00:24:00.130Z,2.30
2023-02-02T00:26:26.834Z,2.53
2023-02-02T00:28:53.920Z,2.80
2023-02-02T00:31:20.564Z,2.57
2023-02-02T00:33:48.978Z,2.30
2023-02-02T00:36:16.315Z,2.00
2023-02-02T00:38:43.391Z,1.87
2023-02-02T00:41:10.069Z,1.63
2023-02-02T00:43:36.671Z,2.00
2023-02-02T00:46:03.798Z,2.70
2023-02-02T00:48:30.590Z,2.00
2023-02-02T00:50:58.137Z,2.10
2023-02-02T00:53:24.954Z,1.80
2023-02-02T00:55:51.530Z,2.57
2023-02-02T00:58:18.114Z,2.20
2023-02-02T01:00:44.733Z,2.40
2023-02-02T01:03:13.298Z,2.73
2023-02-02T01:05:39.933Z,2.10
2023-02-02T01:08:06.583Z,2.43
2023-02-02T01:10:34.237Z,2.90
2023-02-02T01:13:00.896Z,2.47
2023-02-02T01:15:27.566Z,1.73
2023-02-02T01:17:54.065Z,2.00
2023-02-02T01:20:20.917Z,1.83
2023-02-02T01:22:47.659Z,2.10
2023-02-02T01:25:14.207Z,2.40
2023-02-02T01:27:40.887Z,2.50
2023-02-02T01:30:08.336Z,2.50
2023-02-02T01:32:34.871Z,2.57
2023-02-02T01:35:01.451Z,1.97
2023-02-02T01:37:28.022Z,2.40
2023-02-02T01:39:54.663Z,2.87
2023-02-02T01:42:22.856Z,1.97
2023-02-02T01:45:04.279Z,2.30
2023-02-02T01:47:35.995Z,2.17
2023-02-02T01:50:03.446Z,2.10
2023-02-02T01:52:32.707Z,2.33
2023-02-02T01:55:04.443Z,2.03
2023-02-02T01:57:45.509Z,2.17
2023-02-02T02:00:14.799Z,2.03
2023-02-02T02:02:49.198Z,2.70
2023-02-02T02:05:21.271Z,1.80
2023-02-02T02:07:50.206Z,2.00
2023-02-02T02:10:18.227Z,2.13
2023-02-02T02:12:47.013Z,2.33
2023-02-02T02:15:32.308Z,2.33
2023-02-02T02:18:07.031Z,2.23
2023-02-02T02:21:19.671Z,2.37
2023-02-02T02:24:10.930Z,2.40
2023-02-02T02:27:14.710Z,1.90
2023-02-02T02:30:07.741Z,1.87
2023-02-02T02:32:46.086Z,2.20
2023-02-02T02:35:20.194Z,1.83
2023-02-02T02:38:00.531Z,2.50
2023-02-02T02:40:55.781Z,2.00
2023-02-02T02:43:35.392Z,2.20
2023-02-02T02:46:03.725Z,3.03
2023-02-02T02:48:30.540Z,2.43
2023-02-02T02:51:41.896Z,2.40
2023-02-02T02:54:08.944Z,2.40
2023-02-02T02:57:14.015Z,1.80
2023-02-02T02:59:49.379Z,1.57
2023-02-02T03:02:46.439Z,1.80
2023-02-02T03:05:17.741Z,2.13
2023-02-02T03:08:05.669Z,2.53
2023-02-02T03:10:34.063Z,2.47
2023-02-02T03:13:00.660Z,1.70
2023-02-02T03:15:27.483Z,1.90
2023-02-02T03:17:54.229Z,1.70
2023-02-02T03:20:20.842Z,1.77
2023-02-02T03:22:47.502Z,2.10
2023-02-02T03:25:14.245Z,2.20
2023-02-02T03:27:40.814Z,1.97
2023-02-02T03:30:10.320Z,2.13
2023-02-02T03:32:37.902Z,1.97
2023-02-02T03:35:05.005Z,2.23
2023-02-02T03:37:31.641Z,1.43
2023-02-02T03:39:58.239Z,2.03
2023-02-02T03:42:24.769Z,2.40
2023-02-02T03:44:51.373Z,1.73
2023-02-02T03:47:17.906Z,2.00
2023-02-02T03:49:44.431Z,2.13
2023-02-02T03:52:10.990Z,2.27
2023-02-02T03:54:37.732Z,2.00
2023-02-02T03:57:04.304Z,2.10
2023-02-02T03:59:30.894Z,2.60
2023-02-02T04:01:57.549Z,2.40
2023-02-02T04:04:24.205Z,1.83
2023-02-02T04:06:51.709Z,1.93
2023-02-02T04:09:18.453Z,1.90
2023-02-02T04:11:45.099Z,1.70
2023-02-02T04:14:11.731Z,2.20
2023-02-02T04:16:38.383Z,1.83
2023-02-02T04:19:05.101Z,2.10
2023-02-02T04:21:31.944Z,1.93
2023-02-02T04:23:58.517Z,2.47
2023-02-02T04:26:26.279Z,2.20
2023-02-02T04:28:53.734Z,2.40
2023-02-02T04:31:20.728Z,2.80
2023-02-02T04:33:47.538Z,1.90
2023-02-02T04:36:14.387Z,1.87
2023-02-02T04:38:40.932Z,2.17
2023-02-02T04:41:10.101Z,2.23
2023-02-02T04:43:39.048Z,3.00
2023-02-02T04:46:05.876Z,2.07
2023-02-02T04:48:32.508Z,2.77
2023-02-02T04:51:07.021Z,2.63
2023-02-02T04:53:33.766Z,2.90
2023-02-02T04:56:14.437Z,3.07
2023-02-02T04:58:41.882Z,2.73
2023-02-02T05:01:17.255Z,2.10
2023-02-02T05:03:44.527Z,2.77
2023-02-02T05:06:13.090Z,2.57
2023-02-02T05:08:43.251Z,2.43
2023-02-02T05:11:15.203Z,2.60
2023-02-02T05:13:47.019Z,2.50
2023-02-02T05:16:14.099Z,2.30
2023-02-02T05:18:41.980Z,2.23
2023-02-02T05:21:08.893Z,3.07
2023-02-02T05:23:35.754Z,2.40
2023-02-02T05:26:02.331Z,2.07
2023-02-02T05:28:29.550Z,2.33
2023-02-02T05:30:56.220Z,2.50
2023-02-02T05:33:22.936Z,2.60
2023-02-02T05:35:50.081Z,3.43
2023-02-02T05:38:16.823Z,2.83
2023-02-02T05:40:43.493Z,3.17
2023-02-02T05:43:10.284Z,2.37
2023-02-02T05:45:36.901Z,2.57
2023-02-02T05:48:03.518Z,2.43
2023-02-02T05:50:30.277Z,3.03
2023-02-02T05:52:57.724Z,2.30
2023-02-02T05:55:24.686Z,1.90
2023-02-02T05:57:51.672Z,2.47
2023-02-02T06:00:18.805Z,2.50
2023-02-02T06:02:45.363Z,2.30
2023-02-02T06:05:12.076Z,2.20
2023-02-02T06:07:38.796Z,2.67
2023-02-02T06:10:05.899Z,2.17
2023-02-02T06:12:32.917Z,2.60
2023-02-02T06:14:59.583Z,4.43
2023-02-02T06:17:26.283Z,2.77
2023-02-02T06:19:52.897Z,3.30
2023-02-02T06:22:19.515Z,2.80
2023-02-02T06:24:46.093Z,2.07
2023-02-02T06:27:12.823Z,2.67
2023-02-02T06:29:39.533Z,1.83
2023-02-02T06:32:06.295Z,1.97
2023-02-02T06:34:33.216Z,2.17
2023-02-02T06:36:59.833Z,1.67
2023-02-02T06:39:26.413Z,2.37
2023-02-02T06:41:53.167Z,1.97
2023-02-02T06:44:21.043Z,1.90
2023-02-02T06:46:47.841Z,2.90
2023-02-02T06:49:14.434Z,2.17
2023-02-02T06:51:41.478Z,2.43
2023-02-02T06:54:08.133Z,2.07
2023-02-02T06:56:34.749Z,2.30
2023-02-02T06:59:01.376Z,1.60
2023-02-02T07:01:28.043Z,1.70
2023-02-02T07:03:54.706Z,2.70
2023-02-02T07:06:27.062Z,2.20
2023-02-02T07:08:57.644Z,2.20
2023-02-02T07:11:30.831Z,2.30
2023-02-02T07:13:58.180Z,2.70
2023-02-02T07:16:24.870Z,2.27
2023-02-02T07:18:51.445Z,2.20
2023-02-02T07:21:21.724Z,2.20
2023-02-02T07:23:48.658Z,1.83
2023-02-02T07:26:17.251Z,2.70
2023-02-02T07:28:44.228Z,2.67
2023-02-02T07:31:19.685Z,2.23
2023-02-02T07:33:47.605Z,2.00
2023-02-02T07:36:16.466Z,2.90
2023-02-02T07:38:44.151Z,2.80
2023-02-02T07:41:10.965Z,2.40
2023-02-02T07:43:37.523Z,2.23
2023-02-02T07:46:10.058Z,2.80
2023-02-02T07:48:37.660Z,2.10
2023-02-02T07:51:06.531Z,2.00
2023-02-02T07:53:33.420Z,2.40
2023-02-02T07:56:15.013Z,2.20
2023-02-02T07:58:42.426Z,2.88
2023-02-02T08:01:11.518Z,2.63
2023-02-02T08:03:38.882Z,2.53
2023-02-02T08:06:29.799Z,2.47
2023-02-02T08:08:56.695Z,2.53
2023-02-02T08:11:25.237Z,2.57
2023-02-02T08:13:56.757Z,2.17
2023-02-02T08:16:25.307Z,2.37
2023-02-02T08:18:52.397Z,2.10
2023-02-02T08:21:19.815Z,2.57
2023-02-02T08:23:46.743Z,2.43
2023-02-02T08:26:27.438Z,2.10
2023-02-02T08:28:57.186Z,2.40
2023-02-02T08:31:30.279Z,2.85
2023-02-02T08:33:58.656Z,3.23
2023-02-02T08:36:27.260Z,2.63
2023-02-02T08:38:54.030Z,3.40
2023-02-02T08:41:23.126Z,2.63
2023-02-02T08:43:51.131Z,2.87
2023-02-02T08:46:20.176Z,2.13
2023-02-02T08:48:47.873Z,3.23
2023-02-02T08:51:16.683Z,2.67
2023-02-02T08:53:43.521Z,2.63
2023-02-02T08:56:17.716Z,2.70
2023-02-02T08:58:46.868Z,2.80
2023-02-02T09:01:16.923Z,2.80
2023-02-02T09:03:44.454Z,2.43
2023-02-02T09:06:13.530Z,2.37
2023-02-02T09:08:40.774Z,2.93
2023-02-02T09:11:10.299Z,2.73
2023-02-02T09:13:37.818Z,2.50
2023-02-02T09:16:06.600Z,3.77
2023-02-02T09:18:33.391Z,3.00
2023-02-02T09:21:01.842Z,2.87
2023-02-02T09:23:33.127Z,2.70
2023-02-02T09:26:19.237Z,2.80
2023-02-02T09:29:11.552Z,2.70
2023-02-02T09:31:38.664Z,2.57
2023-02-02T09:34:07.915Z,2.80
2023-02-02T09:36:35.105Z,2.87
2023-02-02T09:39:02.073Z,2.57
2023-02-02T09:41:31.829Z,2.70
2023-02-02T09:44:16.986Z,2.27
2023-02-02T09:47:02.813Z,2.60
2023-02-02T09:49:48.919Z,2.50
2023-02-02T09:52:30.154Z,2.60
2023-02-02T09:55:03.477Z,2.27
2023-02-02T09:57:37.312Z,2.60
2023-02-02T10:00:06.027Z,2.60
2023-02-02T10:02:39.501Z,2.30
2023-02-02T10:05:16.918Z,3.07
2023-02-02T10:07:48.325Z,2.23
2023-02-02T10:10:27.736Z,2.57
2023-02-02T10:13:06.037Z,2.40
2023-02-02T10:16:03.634Z,2.50
2023-02-02T10:18:35.639Z,2.40
2023-02-02T10:21:23.574Z,2.70
2023-02-02T10:23:50.246Z,2.83
2023-02-02T10:26:31.253Z,2.90
2023-02-02T10:29:17.599Z,2.50
2023-02-02T10:31:49.413Z,2.63
2023-02-02T10:34:34.765Z,2.50
2023-02-02T10:37:19.707Z,2.40
2023-02-02T10:39:55.009Z,2.50
2023-02-02T10:42:35.865Z,2.50
2023-02-02T10:45:10.122Z,2.10
2023-02-02T10:47:38.054Z,2.23
2023-02-02T10:50:21.937Z,2.27
2023-02-02T10:53:03.133Z,2.40
2023-02-02T10:55:35.579Z,2.37
2023-02-02T10:58:20.905Z,1.90
2023-02-02T11:00:53.969Z,2.67
2023-02-02T11:03:32.666Z,2.50
2023-02-02T11:06:20.951Z,2.50
2023-02-02T11:08:56.752Z,1.80
2023-02-02T11:11:32.563Z,2.57
2023-02-02T11:14:11.404Z,2.03
2023-02-02T11:16:44.242Z,2.43
2023-02-02T11:19:17.005Z,2.37
2023-02-02T11:21:49.222Z,2.17
2023-02-02T11:24:27.359Z,2.30
2023-02-02T11:26:57.472Z,2.50
2023-02-02T11:29:32.207Z,2.10
2023-02-02T11:32:17.588Z,2.40
2023-02-02T11:34:44.227Z,2.10
2023-02-02T11:39:53.032Z,1.83
2023-02-02T11:42:23.069Z,1.80
2023-02-02T11:44:58.202Z,1.80
2023-02-02T11:47:28.719Z,1.80
2023-02-02T11:49:58.695Z,2.53
2023-02-02T11:52:29.603Z,1.80
2023-02-02T11:55:09.210Z,1.60
2023-02-02T11:57:35.920Z,2.00
2023-02-02T12:00:08.513Z,2.20
2023-02-02T12:02:35.346Z,1.60
2023-02-02T12:05:14.708Z,2.10
2023-02-02T12:07:43.746Z,1.67
2023-02-02T12:10:25.927Z,1.90
2023-02-02T12:13:16.935Z,1.90
2023-02-02T12:16:02.010Z,1.47
2023-02-02T12:18:59.975Z,1.50
2023-02-02T12:21:35.750Z,1.70
2023-02-02T12:24:17.617Z,1.40
2023-02-02T12:26:55.563Z,1.40
2023-02-02T12:29:37.906Z,1.47
2023-02-02T12:32:28.080Z,1.60
2023-02-02T12:35:42.384Z,1.50
2023-02-02T12:38:30.461Z,1.20
2023-02-02T12:41:07.715Z,1.00
2023-02-02T12:43:47.316Z,1.10
2023-02-02T12:46:14.604Z,1.20
2023-02-02T12:49:07.228Z,1.10
2023-02-02T12:51:55.546Z,1.00
2023-02-02T12:54:45.757Z,0.97
2023-02-02T12:57:41.594Z,1.30
2023-02-02T13:00:43.684Z,1.17
2023-02-02T13:03:32.883Z,1.10
2023-02-02T13:06:10.691Z,0.80
2023-02-02T13:08:48.720Z,0.83
2023-02-02T13:11:32.880Z,0.93
2023-02-02T13:14:11.262Z,0.70
2023-02-02T13:16:44.298Z,1.13
2023-02-02T13:19:19.390Z,0.90
2023-02-02T13:21:48.380Z,1.00
2023-02-02T13:24:24.671Z,0.87
2023-02-02T13:26:51.980Z,0.70
2023-02-02T13:29:47.886Z,1.17
2023-02-02T13:32:36.267Z,0.97
2023-02-02T13:35:33.320Z,0.90
2023-02-02T13:38:18.149Z,0.80
2023-02-02T13:40:45.004Z,0.93
2023-02-02T13:43:11.547Z,0.80
2023-02-02T13:45:47.311Z,0.90
2023-02-02T13:48:25.489Z,0.73
2023-02-02T13:51:10.361Z,0.80
2023-02-02T13:53:39.902Z,1.00
2023-02-02T13:56:30.997Z,1.03
2023-02-02T13:59:49.090Z,0.70
2023-02-02T14:02:42.117Z,1.03
2023-02-02T14:05:37.989Z,0.90
2023-02-02T14:08:08.385Z,0.90
2023-02-02T14:11:05.105Z,0.80
2023-02-02T14:14:00.517Z,1.07
2023-02-02T14:16:32.784Z,1.03
2023-02-02T14:19:01.169Z,1.20
2023-02-02T14:21:33.817Z,1.07
2023-02-02T14:24:37.210Z,1.33
2023-02-02T14:27:10.005Z,1.17
2023-02-02T14:29:57.416Z,0.93
2023-02-02T14:32:24.073Z,1.23
2023-02-02T14:34:53.630Z,0.87
2023-02-02T14:37:34.874Z,1.13
2023-02-02T14:40:07.320Z,1.30
2023-02-02T14:43:11.332Z,0.90
2023-02-02T14:45:42.283Z,0.93
2023-02-02T14:48:19.868Z,1.07
2023-02-02T14:51:01.752Z,1.10
2023-02-02T14:53:35.196Z,1.13
2023-02-02T14:56:13.504Z,1.03
2023-02-02T14:58:45.890Z,0.90
2023-02-02T15:01:25.159Z,1.47
2023-02-02T15:04:00.916Z,1.20
2023-02-02T15:06:37.176Z,1.50
2023-02-02T15:09:33.784Z,1.30
2023-02-02T15:12:03.071Z,1.60
2023-02-02T15:14:35.867Z,1.30
2023-02-02T15:17:15.646Z,1.10
2023-02-02T15:19:47.914Z,1.20
2023-02-02T15:22:32.068Z,1.30
2023-02-02T15:25:04.412Z,1.23
2023-02-02T15:27:31.868Z,1.57
2023-02-02T15:30:04.477Z,1.40
2023-02-02T15:32:32.060Z,1.50
2023-02-02T15:35:03.010Z,1.40
2023-02-02T15:37:40.325Z,1.40
2023-02-02T15:40:16.015Z,1.40
2023-02-02T15:42:53.036Z,1.37
2023-02-02T15:45:32.032Z,1.67
2023-02-02T15:48:00.130Z,1.40
2023-02-02T15:50:27.421Z,1.60
2023-02-02T15:52:55.372Z,2.10
2023-02-02T15:55:35.236Z,1.60
2023-02-02T15:58:03.036Z,1.77
2023-02-02T16:00:34.721Z,2.90
2023-02-02T16:03:20.053Z,1.53
2023-02-02T16:05:56.708Z,1.63
2023-02-02T16:08:29.814Z,1.50
2023-02-02T16:11:23.801Z,1.47
2023-02-02T16:14:04.116Z,1.40
2023-02-02T16:16:33.468Z,1.70
2023-02-02T16:19:15.098Z,1.83
2023-02-02T16:21:47.936Z,1.67
2023-02-02T16:24:23.242Z,1.73
2023-02-02T16:26:53.377Z,1.60
2023-02-02T16:29:21.094Z,1.93
2023-02-02T16:31:49.466Z,1.53
2023-02-02T16:34:17.088Z,1.80
2023-02-02T16:36:43.795Z,1.90
2023-02-02T16:39:23.239Z,1.60
2023-02-02T16:41:50.896Z,1.67
2023-02-02T16:44:37.425Z,1.70
2023-02-02T16:47:07.017Z,1.50
2023-02-02T16:49:35.497Z,1.50
2023-02-02T16:52:10.295Z,1.87
2023-02-02T16:54:37.718Z,1.90
2023-02-02T16:57:05.177Z,1.47
2023-02-02T16:59:35.823Z,1.97
2023-02-02T17:02:27.472Z,1.40
2023-02-02T17:05:03.288Z,1.60
2023-02-02T17:07:33.015Z,1.60
2023-02-02T17:10:21.374Z,1.80
2023-02-02T17:12:48.296Z,1.93
2023-02-02T17:15:18.134Z,1.80
2023-02-02T17:17:47.945Z,1.67
2023-02-02T17:20:16.231Z,2.00
2023-02-02T17:22:46.253Z,1.93
2023-02-02T17:25:18.171Z,1.50
2023-02-02T17:27:45.480Z,1.70
2023-02-02T17:30:18.143Z,2.20
2023-02-02T17:32:44.697Z,1.70
2023-02-02T17:35:21.100Z,1.77
2023-02-02T17:37:48.597Z,1.67
2023-02-02T17:40:16.675Z,2.10
2023-02-02T17:42:45.101Z,1.80
2023-02-02T17:45:24.427Z,2.37
2023-02-02T17:47:51.457Z,1.40
2023-02-02T17:50:18.591Z,1.60
2023-02-02T17:52:46.279Z,1.90
2023-02-02T17:55:16.103Z,2.20
2023-02-02T17:57:42.569Z,1.60
2023-02-02T18:00:10.647Z,1.80
2023-02-02T18:02:37.406Z,1.83
2023-02-02T18:05:05.000Z,1.50
2023-02-02T18:07:31.893Z,2.10
2023-02-02T18:09:58.396Z,1.97
2023-02-02T18:12:24.976Z,1.77
2023-02-02T18:14:51.940Z,2.00
2023-02-02T18:17:18.499Z,1.90
2023-02-02T18:19:46.741Z,1.70
2023-02-02T18:22:13.895Z,2.03
2023-02-02T18:24:41.150Z,1.70
2023-02-02T18:27:08.378Z,1.73
2023-02-02T18:29:35.490Z,2.00
2023-02-02T18:32:02.842Z,2.00
2023-02-02T18:34:31.604Z,1.33
2023-02-02T18:36:58.516Z,1.70
2023-02-02T18:39:25.112Z,1.97
2023-02-02T18:41:51.759Z,1.83
2023-02-02T18:44:18.402Z,1.87
2023-02-02T18:46:44.936Z,2.10
2023-02-02T18:49:11.911Z,2.20
2023-02-02T18:51:38.984Z,2.30
2023-02-02T18:54:05.567Z,2.10
2023-02-02T18:56:32.090Z,1.90
2023-02-02T18:58:59.780Z,1.97
2023-02-02T19:01:26.614Z,2.60
2023-02-02T19:03:57.114Z,7.27
2023-02-02T19:06:42.954Z,4.37
2023-02-02T19:09:09.526Z,2.73
2023-02-02T19:11:44.040Z,2.73
2023-02-02T19:14:24.682Z,3.07
2023-02-02T19:16:52.604Z,2.43
2023-02-02T19:19:30.074Z,2.10
2023-02-02T19:21:58.563Z,2.50
2023-02-02T19:24:26.808Z,2.17
2023-02-02T19:26:53.938Z,2.30
2023-02-02T19:29:30.348Z,2.30
2023-02-02T19:32:02.820Z,2.43
2023-02-02T19:34:29.967Z,2.50
2023-02-02T19:36:56.548Z,2.40
2023-02-02T19:39:29.088Z,2.43
2023-02-02T19:41:59.420Z,2.03
2023-02-02T19:44:34.099Z,2.60
2023-02-02T19:47:02.883Z,2.23
2023-02-02T19:49:36.134Z,2.27
2023-02-02T19:52:08.061Z,2.23
2023-02-02T19:54:40.395Z,2.03
2023-02-02T19:57:13.001Z,2.00
2023-02-02T19:59:40.916Z,2.00
2023-02-02T20:02:34.402Z,1.90
2023-02-02T20:05:23.951Z,1.97
2023-02-02T20:08:19.276Z,1.90
2023-02-02T20:10:46.181Z,2.13
2023-02-02T20:13:18.672Z,1.90
2023-02-02T20:15:46.351Z,2.47
2023-02-02T20:18:44.396Z,2.10
2023-02-02T20:21:45.685Z,1.90
2023-02-02T20:24:18.412Z,2.17
2023-02-02T20:26:45.721Z,2.37
2023-02-02T20:29:22.481Z,2.30
2023-02-02T20:31:50.929Z,3.90
2023-02-02T20:34:26.015Z,7.63
2023-02-02T20:37:16.010Z,2.60
2023-02-02T20:39:51.954Z,4.23
2023-02-02T20:42:18.463Z,1.70
2023-02-02T20:44:45.219Z,2.47
2023-02-02T20:47:12.531Z,2.33
2023-02-02T20:49:39.742Z,2.50
2023-02-02T20:52:10.632Z,2.77
2023-02-02T20:54:38.367Z,3.50
2023-02-02T20:57:05.648Z,2.30
2023-02-02T20:59:32.283Z,3.80
2023-02-02T21:01:59.376Z,3.13
2023-02-02T21:04:26.106Z,2.33
2023-02-02T21:06:52.725Z,2.40
2023-02-02T21:09:19.214Z,2.10
2023-02-02T21:11:45.965Z,2.20
2023-02-02T21:14:12.534Z,2.40
2023-02-02T21:16:39.090Z,2.30
2023-02-02T21:19:05.714Z,2.13
2023-02-02T21:21:32.288Z,2.13
2023-02-02T21:24:00.721Z,2.80
2023-02-02T21:26:29.830Z,2.90
2023-02-02T21:28:58.185Z,1.97
2023-02-02T21:31:25.125Z,2.70
2023-02-02T21:33:53.066Z,1.90
2023-02-02T21:36:33.278Z,2.33
2023-02-02T21:39:10.943Z,1.80
2023-02-02T21:41:37.547Z,2.03
2023-02-02T21:44:15.168Z,2.73
2023-02-02T21:46:42.219Z,2.30
2023-02-02T21:49:35.696Z,2.30
2023-02-02T21:52:12.423Z,2.00
2023-02-02T21:54:40.381Z,2.23
2023-02-02T21:57:27.795Z,1.67
2023-02-02T21:59:56.318Z,1.87
2023-02-02T22:02:44.891Z,2.17
2023-02-02T22:05:38.016Z,2.13
2023-02-02T22:08:20.921Z,2.07
2023-02-02T22:10:48.014Z,2.23
2023-02-02T22:13:23.923Z,2.30
2023-02-02T22:15:52.485Z,1.90
2023-02-02T22:18:25.041Z,1.90
2023-02-02T22:20:54.422Z,2.40
2023-02-02T22:23:22.939Z,2.00
2023-02-02T22:25:52.961Z,2.23
2023-02-02T22:28:32.759Z,2.20
2023-02-02T22:31:00.560Z,2.40
2023-02-02T22:33:27.243Z,2.23
2023-02-02T22:35:54.475Z,1.83
2023-02-02T22:38:23.558Z,2.10
2023-02-02T22:40:51.387Z,2.20
2023-02-02T22:43:20.023Z,2.00
2023-02-02T22:45:47.198Z,2.33
2023-02-02T22:48:16.571Z,1.67
2023-02-02T22:50:43.155Z,1.93
2023-02-02T22:53:10.000Z,2.10
2023-02-02T22:55:36.527Z,1.97
2023-02-02T22:58:03.136Z,2.00
2023-02-02T23:00:32.982Z,1.80
2023-02-02T23:02:59.749Z,2.20
2023-02-02T23:05:27.668Z,2.47
2023-02-02T23:07:54.960Z,2.23
2023-02-02T23:10:25.029Z,1.70
2023-02-02T23:12:55.157Z,1.97
2023-02-02T23:15:21.839Z,2.10
2023-02-02T23:17:48.793Z,2.13
2023-02-02T23:20:16.014Z,1.80
2023-02-02T23:22:42.682Z,1.93
2023-02-02T23:25:10.501Z,1.97
2023-02-02T23:27:37.692Z,2.20
2023-02-02T23:30:05.576Z,2.30
2023-02-02T23:32:32.055Z,2.10
2023-02-02T23:34:58.668Z,1.80
2023-02-02T23:37:25.313Z,2.23
2023-02-02T23:39:51.846Z,2.00
2023-02-02T23:42:18.763Z,2.20
2023-02-02T23:44:45.438Z,2.00
2023-02-02T23:47:12.195Z,2.57
2023-02-02T23:49:39.224Z,2.50
2023-02-02T23:52:06.498Z,1.93
2023-02-02T23:54:33.758Z,1.97
2023-02-02T23:57:01.320Z,1.70
2023-02-02T23:59:27.937Z,2.13
